<?xml version="1.0" encoding="UTF-8" standalone="no" ?>
<gpx xmlns="http://www.topografix.com/GPX/1/1" xmlns:xsi="http://www.w3.org/2001/XMLSchema-instance" xsi:schemaLocation="http://www.topografix.com/GPX/1/1 http://www.topografix.com/GPX/1/1/gpx.xsd" version="1.1" creator="VisuGPX - https://www.visugpx.com">
  <metadata>
    <name>transnawakienne 3</name>
    <desc><![CDATA[j\\\'ai encore pas réussi à virer mes traces précédentes, mais vous avez quand meme la transnawakienne 3. On a fait environ 45 km apparemment]]></desc>
  </metadata>
  <trk>
    <name><![CDATA[Tracé actuel: 29 SEPT 2012 08:40]]></name>
    <trkseg>
      <trkpt lat="48.79583" lon="2.31487">
        <ele>87.14</ele>
        <time>2012-09-29T06:40:34Z</time>
      </trkpt>
      <trkpt lat="48.79583" lon="2.31485">
        <ele>98.67</ele>
        <time>2012-09-29T06:40:48Z</time>
      </trkpt>
      <trkpt lat="48.79582" lon="2.31482">
        <ele>102.04</ele>
        <time>2012-09-29T06:41:06Z</time>
      </trkpt>
      <trkpt lat="48.79581" lon="2.31484">
        <ele>103.48</ele>
        <time>2012-09-29T06:41:11Z</time>
      </trkpt>
      <trkpt lat="48.725" lon="2.31262">
        <ele>85.21</ele>
        <time>2012-09-29T07:01:16Z</time>
      </trkpt>
      <trkpt lat="48.72128" lon="2.31122">
        <ele>90.98</ele>
        <time>2012-09-29T07:01:32Z</time>
      </trkpt>
      <trkpt lat="48.7187" lon="2.31034">
        <ele>92.42</ele>
        <time>2012-09-29T07:01:43Z</time>
      </trkpt>
      <trkpt lat="48.7146" lon="2.30889">
        <ele>92.42</ele>
        <time>2012-09-29T07:01:59Z</time>
      </trkpt>
      <trkpt lat="48.71023" lon="2.30726">
        <ele>91.46</ele>
        <time>2012-09-29T07:02:16Z</time>
      </trkpt>
      <trkpt lat="48.70659" lon="2.30598">
        <ele>87.62</ele>
        <time>2012-09-29T07:02:30Z</time>
      </trkpt>
      <trkpt lat="48.70474" lon="2.30614">
        <ele>83.77</ele>
        <time>2012-09-29T07:02:37Z</time>
      </trkpt>
      <trkpt lat="48.70293" lon="2.30711">
        <ele>82.33</ele>
        <time>2012-09-29T07:02:44Z</time>
      </trkpt>
      <trkpt lat="48.7027" lon="2.30733">
        <ele>82.33</ele>
        <time>2012-09-29T07:02:45Z</time>
      </trkpt>
      <trkpt lat="48.70127" lon="2.30919">
        <ele>81.37</ele>
        <time>2012-09-29T07:02:52Z</time>
      </trkpt>
      <trkpt lat="48.699" lon="2.3127">
        <ele>78</ele>
        <time>2012-09-29T07:03:04Z</time>
      </trkpt>
      <trkpt lat="48.69616" lon="2.31701">
        <ele>72.72</ele>
        <time>2012-09-29T07:03:19Z</time>
      </trkpt>
      <trkpt lat="48.69371" lon="2.32016">
        <ele>72.24</ele>
        <time>2012-09-29T07:03:31Z</time>
      </trkpt>
      <trkpt lat="48.6914" lon="2.32217">
        <ele>78</ele>
        <time>2012-09-29T07:03:41Z</time>
      </trkpt>
      <trkpt lat="48.68952" lon="2.32378">
        <ele>85.69</ele>
        <time>2012-09-29T07:03:49Z</time>
      </trkpt>
      <trkpt lat="48.68628" lon="2.32666">
        <ele>90.98</ele>
        <time>2012-09-29T07:04:03Z</time>
      </trkpt>
      <trkpt lat="48.68343" lon="2.32902">
        <ele>85.21</ele>
        <time>2012-09-29T07:04:15Z</time>
      </trkpt>
      <trkpt lat="48.6821" lon="2.33008">
        <ele>81.85</ele>
        <time>2012-09-29T07:04:20Z</time>
      </trkpt>
      <trkpt lat="48.66595" lon="2.36108">
        <ele>65.99</ele>
        <time>2012-09-29T07:06:00Z</time>
      </trkpt>
      <trkpt lat="48.66478" lon="2.36415">
        <ele>73.68</ele>
        <time>2012-09-29T07:06:10Z</time>
      </trkpt>
      <trkpt lat="48.66246" lon="2.36832">
        <ele>78.48</ele>
        <time>2012-09-29T07:06:25Z</time>
      </trkpt>
      <trkpt lat="48.66019" lon="2.37226">
        <ele>78.97</ele>
        <time>2012-09-29T07:06:39Z</time>
      </trkpt>
      <trkpt lat="48.65799" lon="2.37598">
        <ele>79.93</ele>
        <time>2012-09-29T07:06:51Z</time>
      </trkpt>
      <trkpt lat="48.65563" lon="2.37881">
        <ele>81.37</ele>
        <time>2012-09-29T07:07:02Z</time>
      </trkpt>
      <trkpt lat="48.65319" lon="2.38118">
        <ele>82.33</ele>
        <time>2012-09-29T07:07:13Z</time>
      </trkpt>
      <trkpt lat="48.64972" lon="2.3846">
        <ele>84.25</ele>
        <time>2012-09-29T07:07:29Z</time>
      </trkpt>
      <trkpt lat="48.6452" lon="2.38916">
        <ele>87.62</ele>
        <time>2012-09-29T07:07:50Z</time>
      </trkpt>
      <trkpt lat="48.64306" lon="2.39132">
        <ele>89.54</ele>
        <time>2012-09-29T07:07:59Z</time>
      </trkpt>
    </trkseg>
  </trk>
</gpx>